Terminal Aerodrome Forecast
Issued by NWS

Home | Current Version | Previous Version | Text Only | Print | Product List | Glossary On
Versions: 1 2 3 4 5 6 7 8 9 10 11 12 13 14 15 16
000
FTUS42 KGSP 211000 AAB
TAFAND
TAF AMD
KAND 211001Z 2110/2206 00000KT P6SM FEW150
      TEMPO 2110/2113 2SM BR
     FM211300 29003KT P6SM FEW250
     FM211600 29007KT P6SM FEW250
     FM220300 35005KT P6SM FEW250=

USA.gov is the U.S. government's official web portal to all federal, state and local government web resources and services.